createdAt,value
2018-11-29T00:00:30.810Z,19.70
2018-11-29T00:02:58.485Z,20.03
2018-11-29T00:05:26.177Z,20.80
2018-11-29T00:07:53.942Z,19.62
2018-11-29T00:10:21.635Z,19.42
2018-11-29T00:12:49.262Z,19.07
2018-11-29T00:15:16.980Z,21.07
2018-11-29T00:17:44.669Z,19.30
2018-11-29T00:20:17.736Z,19.50
2018-11-29T00:22:46.713Z,19.20
2018-11-29T00:25:16.345Z,17.70
2018-11-29T00:27:44.450Z,17.40
2018-11-29T00:30:20.254Z,18.70
2018-11-29T00:32:48.254Z,18.40
2018-11-29T00:35:16.714Z,17.27
2018-11-29T00:37:44.466Z,17.87
2018-11-29T00:40:19.097Z,17.23
2018-11-29T00:42:46.810Z,18.17
2018-11-29T00:45:18.669Z,16.10
2018-11-29T00:47:47.159Z,16.03
2018-11-29T00:50:15.913Z,16.87
2018-11-29T00:52:44.956Z,14.93
2018-11-29T00:55:16.147Z,16.93
2018-11-29T00:57:43.795Z,14.60
2018-11-29T01:00:17.772Z,13.65
2018-11-29T01:02:45.483Z,15.60
2018-11-29T01:05:13.138Z,15.03
2018-11-29T01:07:40.770Z,15.20
2018-11-29T01:10:10.824Z,14.00
2018-11-29T01:12:38.593Z,14.90
2018-11-29T01:15:10.173Z,14.83
2018-11-29T01:17:37.865Z,15.53
2018-11-29T01:20:08.838Z,12.47
2018-11-29T01:22:36.536Z,13.33
2018-11-29T01:25:05.476Z,11.53
2018-11-29T01:27:33.139Z,13.40
2018-11-29T01:30:00.808Z,12.40
2018-11-29T01:32:28.475Z,11.78
2018-11-29T01:34:56.112Z,13.23
2018-11-29T01:37:23.778Z,12.97
2018-11-29T01:39:51.398Z,13.30
2018-11-29T01:42:19.018Z,11.97
2018-11-29T01:44:46.639Z,12.17
2018-11-29T01:47:14.255Z,12.67
2018-11-29T01:49:41.949Z,12.53
2018-11-29T01:52:09.617Z,13.05
2018-11-29T01:54:37.282Z,11.50
2018-11-29T01:57:05.350Z,13.30
2018-11-29T01:59:33.009Z,12.97
2018-11-29T02:02:00.737Z,12.43
2018-11-29T02:04:28.359Z,14.00
2018-11-29T02:06:55.989Z,14.50
2018-11-29T02:09:23.621Z,14.40
2018-11-29T02:11:51.380Z,13.67
2018-11-29T02:14:19.132Z,13.70
2018-11-29T02:16:47.902Z,14.18
2018-11-29T02:19:15.600Z,15.10
2018-11-29T02:21:43.241Z,14.50
2018-11-29T02:24:10.886Z,14.77
2018-11-29T02:26:38.574Z,15.67
2018-11-29T02:29:06.213Z,14.50
2018-11-29T02:31:35.744Z,14.73
2018-11-29T02:34:04.656Z,14.67
2018-11-29T02:36:32.334Z,14.13
2018-11-29T02:39:00.175Z,13.80
2018-11-29T02:41:27.812Z,16.32
2018-11-29T02:43:55.496Z,16.95
2018-11-29T02:46:23.169Z,15.00
2018-11-29T02:48:50.826Z,15.77
2018-11-29T02:51:18.515Z,22.10
2018-11-29T02:53:46.141Z,19.37
2018-11-29T02:56:13.785Z,17.02
2018-11-29T02:58:41.413Z,18.07
2018-11-29T03:01:09.133Z,16.60
2018-11-29T03:03:36.857Z,16.93
2018-11-29T03:06:05.049Z,18.20
2018-11-29T03:08:32.732Z,15.07
2018-11-29T03:11:00.417Z,15.28
2018-11-29T03:13:28.094Z,17.07
2018-11-29T03:15:55.754Z,18.23
2018-11-29T03:18:23.465Z,17.80
2018-11-29T03:20:51.109Z,16.47
2018-11-29T03:23:18.774Z,16.77
2018-11-29T03:25:46.416Z,15.60
2018-11-29T03:28:14.129Z,18.00
2018-11-29T03:30:41.771Z,16.20
2018-11-29T03:33:09.618Z,17.30
2018-11-29T03:35:37.276Z,18.03
2018-11-29T03:38:05.136Z,17.95
2018-11-29T03:40:32.828Z,17.90
2018-11-29T03:43:01.080Z,17.67
2018-11-29T03:45:28.696Z,17.63
2018-11-29T03:47:56.393Z,18.07
2018-11-29T03:50:24.091Z,18.70
2018-11-29T03:52:51.774Z,18.53
2018-11-29T03:55:19.434Z,17.63
2018-11-29T03:57:47.145Z,16.43
2018-11-29T04:00:16.802Z,17.67
2018-11-29T04:02:48.077Z,17.63
2018-11-29T04:05:15.837Z,17.43
2018-11-29T04:07:43.554Z,19.07
2018-11-29T04:10:13.633Z,18.37
2018-11-29T04:12:41.417Z,20.43
2018-11-29T04:15:10.812Z,16.33
2018-11-29T04:17:40.879Z,20.10
2018-11-29T04:20:12.185Z,18.90
2018-11-29T04:22:39.818Z,18.23
2018-11-29T04:25:09.866Z,19.05
2018-11-29T04:27:37.718Z,18.93
2018-11-29T04:30:21.218Z,18.33
2018-11-29T04:32:48.903Z,20.03
2018-11-29T04:35:16.582Z,17.50
2018-11-29T04:37:44.280Z,20.12
2018-11-29T04:40:14.626Z,18.23
2018-11-29T04:42:42.326Z,16.57
2018-11-29T04:45:12.465Z,19.63
2018-11-29T04:47:40.180Z,18.90
2018-11-29T04:50:07.958Z,18.67
2018-11-29T04:52:35.624Z,17.15
2018-11-29T04:55:03.376Z,18.10
2018-11-29T04:57:31.087Z,17.50
2018-11-29T04:59:58.748Z,19.33
2018-11-29T05:02:26.434Z,18.43
2018-11-29T05:04:54.227Z,19.50
2018-11-29T05:07:21.876Z,16.77
2018-11-29T05:09:49.502Z,19.02
2018-11-29T05:12:17.171Z,17.37
2018-11-29T05:14:44.954Z,19.07
2018-11-29T05:17:12.643Z,20.53
2018-11-29T05:19:40.424Z,18.80
2018-11-29T05:22:08.094Z,20.17
2018-11-29T05:24:35.791Z,18.27
2018-11-29T05:27:04.227Z,18.67
2018-11-29T05:29:31.926Z,18.90
2018-11-29T05:31:59.593Z,20.07
2018-11-29T05:34:27.318Z,20.82
2018-11-29T05:36:55.048Z,19.42
2018-11-29T05:39:22.833Z,20.20
2018-11-29T05:41:50.491Z,18.90
2018-11-29T05:44:18.166Z,17.70
2018-11-29T05:46:45.944Z,20.88
2018-11-29T05:49:13.649Z,19.23
2018-11-29T05:51:41.301Z,19.25
2018-11-29T05:54:09.030Z,19.00
2018-11-29T05:56:36.729Z,20.77
2018-11-29T05:59:04.867Z,19.63
2018-11-29T06:01:34.588Z,20.60
2018-11-29T06:04:02.380Z,20.00
2018-11-29T06:06:30.275Z,19.67
2018-11-29T06:08:58.897Z,18.87
2018-11-29T06:11:26.545Z,20.03
2018-11-29T06:13:54.217Z,19.17
2018-11-29T06:16:21.960Z,20.65
2018-11-29T06:18:49.691Z,21.23
2018-11-29T06:21:17.344Z,19.37
2018-11-29T06:23:45.745Z,20.30
2018-11-29T06:26:14.379Z,21.57
2018-11-29T06:28:42.254Z,20.27
2018-11-29T06:31:10.080Z,22.17
2018-11-29T06:33:37.847Z,20.77
2018-11-29T06:36:05.620Z,21.57
2018-11-29T06:38:33.611Z,17.70
2018-11-29T06:41:01.433Z,20.23
2018-11-29T06:43:29.299Z,19.10
2018-11-29T06:45:57.192Z,20.70
2018-11-29T06:48:24.926Z,21.48
2018-11-29T06:50:52.663Z,20.82
2018-11-29T06:53:26.041Z,19.63
2018-11-29T06:55:54.055Z,20.40
2018-11-29T06:58:21.710Z,21.30
2018-11-29T07:00:49.490Z,19.98
2018-11-29T07:03:17.115Z,19.15
2018-11-29T07:05:44.801Z,18.90
2018-11-29T07:08:12.453Z,18.57
2018-11-29T07:10:40.169Z,20.57
2018-11-29T07:13:07.863Z,21.30
2018-11-29T07:15:35.510Z,19.05
2018-11-29T07:18:03.287Z,17.90
2018-11-29T07:20:30.894Z,19.40
2018-11-29T07:22:58.618Z,19.43
2018-11-29T07:25:26.298Z,21.03
2018-11-29T07:27:54.014Z,21.02
2018-11-29T07:30:21.662Z,20.20
2018-11-29T07:32:49.322Z,18.42
2018-11-29T07:35:17.068Z,18.82
2018-11-29T07:37:44.739Z,18.80
2018-11-29T07:40:15.801Z,18.53
2018-11-29T07:42:44.434Z,18.63
2018-11-29T07:45:17.663Z,18.07
2018-11-29T07:47:45.666Z,20.90
2018-11-29T07:50:16.134Z,19.33
2018-11-29T07:52:43.838Z,19.20
2018-11-29T07:55:15.012Z,17.90
2018-11-29T07:57:43.289Z,18.13
2018-11-29T08:00:14.531Z,18.10
2018-11-29T08:02:42.190Z,18.70
2018-11-29T08:05:12.418Z,17.87
2018-11-29T08:07:47.589Z,19.03
2018-11-29T08:10:15.745Z,18.57
2018-11-29T08:12:43.361Z,17.60
2018-11-29T08:15:14.700Z,17.62
2018-11-29T08:17:42.343Z,17.00
2018-11-29T08:20:13.872Z,18.42
2018-11-29T08:22:41.529Z,17.40
2018-11-29T08:25:10.202Z,15.98
2018-11-29T08:27:37.892Z,16.67
2018-11-29T08:30:09.180Z,18.00
2018-11-29T08:32:36.903Z,17.33
2018-11-29T08:35:06.536Z,19.33
2018-11-29T08:37:34.221Z,20.63
2018-11-29T08:40:01.912Z,18.00
2018-11-29T08:42:29.563Z,19.57
2018-11-29T08:44:57.185Z,19.87
2018-11-29T08:47:25.586Z,18.10
2018-11-29T08:49:53.250Z,19.45
2018-11-29T08:52:20.937Z,19.13
2018-11-29T08:54:48.674Z,20.50
2018-11-29T08:57:16.396Z,18.60
2018-11-29T08:59:45.296Z,19.27
2018-11-29T09:02:18.105Z,19.70
2018-11-29T09:04:45.802Z,21.10
2018-11-29T09:07:13.548Z,19.57
2018-11-29T09:09:41.230Z,20.65
2018-11-29T09:12:09.205Z,19.57
2018-11-29T09:14:36.844Z,18.23
2018-11-29T09:17:05.527Z,17.67
2018-11-29T09:19:37.397Z,20.17
2018-11-29T09:22:00.873Z,19.77
2018-11-29T09:24:28.489Z,20.25
2018-11-29T09:26:56.215Z,19.73
2018-11-29T09:29:23.826Z,18.60
2018-11-29T09:31:51.501Z,21.97
2018-11-29T09:34:19.108Z,21.60
2018-11-29T09:36:46.778Z,19.43
2018-11-29T09:39:14.423Z,18.87
2018-11-29T09:41:42.695Z,20.17
2018-11-29T09:44:10.322Z,19.93
2018-11-29T09:46:38.109Z,19.17
2018-11-29T09:49:05.823Z,19.17
2018-11-29T09:51:33.381Z,17.53
2018-11-29T09:54:01.054Z,19.67
2018-11-29T09:56:28.670Z,19.30
2018-11-29T09:58:56.318Z,19.12
2018-11-29T10:01:23.926Z,18.82
2018-11-29T10:03:51.605Z,18.13
2018-11-29T10:06:19.281Z,19.20
2018-11-29T10:08:46.924Z,20.30
2018-11-29T10:11:14.561Z,18.15
2018-11-29T10:13:46.133Z,18.80
2018-11-29T10:16:09.918Z,17.30
2018-11-29T10:18:37.602Z,20.60
2018-11-29T10:21:06.285Z,19.57
2018-11-29T10:23:33.975Z,18.70
2018-11-29T10:26:01.659Z,18.57
2018-11-29T10:28:29.891Z,21.70
2018-11-29T10:30:59.957Z,18.17
2018-11-29T10:33:27.650Z,17.93
2018-11-29T10:35:59.015Z,18.97
2018-11-29T10:38:23.146Z,18.70
2018-11-29T10:40:51.713Z,18.15
2018-11-29T10:43:19.391Z,17.70
2018-11-29T10:45:47.052Z,18.23
2018-11-29T10:48:20.714Z,18.23
2018-11-29T10:50:48.402Z,18.73
2018-11-29T10:53:16.111Z,19.07
2018-11-29T10:55:43.810Z,19.67
2018-11-29T10:58:11.568Z,18.45
2018-11-29T11:00:45.872Z,17.57
2018-11-29T11:03:19.500Z,18.00
2018-11-29T11:05:50.437Z,17.03
2018-11-29T11:08:18.884Z,18.43
2018-11-29T11:10:47.596Z,18.40
2018-11-29T11:13:18.228Z,17.90
2018-11-29T11:15:47.318Z,16.80
2018-11-29T11:18:15.991Z,16.13
2018-11-29T11:20:44.316Z,19.53
2018-11-29T11:23:12.095Z,18.27
2018-11-29T11:25:41.069Z,18.07
2018-11-29T11:28:10.508Z,18.70
2018-11-29T11:30:43.448Z,19.60
2018-11-29T11:33:11.944Z,20.07
2018-11-29T11:35:41.378Z,19.40
2018-11-29T11:38:11.093Z,21.47
2018-11-29T11:40:38.857Z,20.83
2018-11-29T11:43:07.224Z,20.53
2018-11-29T11:45:34.935Z,19.90
2018-11-29T11:48:03.449Z,19.42
2018-11-29T11:50:34.488Z,20.30
2018-11-29T11:53:02.186Z,21.03
2018-11-29T11:55:30.514Z,20.90
2018-11-29T11:58:01.981Z,20.23
2018-11-29T12:00:30.594Z,19.00
2018-11-29T12:03:16.259Z,20.80
2018-11-29T12:05:43.927Z,18.53
2018-11-29T12:08:12.510Z,19.73
2018-11-29T12:10:42.007Z,20.53
2018-11-29T12:13:09.663Z,20.70
2018-11-29T12:15:38.357Z,20.05
2018-11-29T12:18:09.118Z,18.10
2018-11-29T12:20:36.836Z,20.40
2018-11-29T12:23:06.100Z,20.20
2018-11-29T12:25:34.245Z,19.87
2018-11-29T12:28:01.961Z,20.00
2018-11-29T12:30:34.192Z,21.03
2018-11-29T12:33:04.920Z,20.17
2018-11-29T12:35:33.727Z,21.20
2018-11-29T12:38:01.699Z,19.37
2018-11-29T12:40:29.366Z,21.47
2018-11-29T12:42:57.063Z,20.43
2018-11-29T12:45:24.828Z,19.00
2018-11-29T12:47:52.635Z,21.00
2018-11-29T12:50:24.081Z,22.57
2018-11-29T12:52:51.875Z,20.33
2018-11-29T12:55:26.826Z,21.30
2018-11-29T12:58:05.398Z,20.67
2018-11-29T13:00:25.135Z,21.27
2018-11-29T13:02:57.202Z,20.87
2018-11-29T13:05:25.924Z,22.00
2018-11-29T13:07:53.790Z,21.67
2018-11-29T13:10:24.104Z,22.17
2018-11-29T13:12:52.231Z,22.37
2018-11-29T13:15:23.619Z,20.80
2018-11-29T13:17:51.334Z,22.63
2018-11-29T13:20:19.787Z,22.90
2018-11-29T13:22:48.162Z,22.87
2018-11-29T13:25:18.217Z,23.63
2018-11-29T13:27:46.079Z,22.83
2018-11-29T13:30:19.661Z,22.17
2018-11-29T13:32:49.950Z,22.70
2018-11-29T13:35:23.035Z,23.50
2018-11-29T13:37:54.344Z,23.20
2018-11-29T13:40:23.054Z,22.83
2018-11-29T13:42:51.510Z,23.80
2018-11-29T13:45:19.626Z,21.57
2018-11-29T13:47:47.776Z,22.40
2018-11-29T13:50:17.271Z,21.67
2018-11-29T13:52:46.798Z,22.23
2018-11-29T13:55:15.575Z,21.67
2018-11-29T13:57:46.395Z,22.77
2018-11-29T14:00:20.465Z,22.90
2018-11-29T14:02:51.076Z,23.87
2018-11-29T14:05:18.792Z,20.20
2018-11-29T14:07:48.788Z,21.33
2018-11-29T14:10:20.586Z,21.37
2018-11-29T14:12:50.107Z,19.50
2018-11-29T14:15:23.469Z,21.37
2018-11-29T14:17:51.209Z,19.33
2018-11-29T14:20:19.566Z,19.80
2018-11-29T14:22:47.279Z,18.30
2018-11-29T14:25:17.925Z,19.07
2018-11-29T14:27:48.564Z,18.47
2018-11-29T14:30:18.966Z,20.00
2018-11-29T14:32:47.085Z,19.17
2018-11-29T14:35:14.771Z,17.33
2018-11-29T14:37:42.519Z,18.17
2018-11-29T14:40:15.773Z,19.07
2018-11-29T14:42:44.265Z,18.33
2018-11-29T14:45:15.626Z,19.40
2018-11-29T14:47:43.247Z,17.87
2018-11-29T14:50:35.391Z,20.08
2018-11-29T14:53:03.089Z,16.50
2018-11-29T14:55:31.847Z,18.43
2018-11-29T14:57:59.624Z,17.97
2018-11-29T15:00:27.326Z,17.77
2018-11-29T15:02:56.166Z,18.07
2018-11-29T15:05:27.706Z,19.63
2018-11-29T15:07:55.593Z,17.23
2018-11-29T15:10:23.953Z,15.90
2018-11-29T15:12:54.661Z,16.50
2018-11-29T15:15:22.354Z,16.77
2018-11-29T15:17:51.834Z,15.97
2018-11-29T15:20:27.257Z,15.60
2018-11-29T15:22:55.014Z,16.30
2018-11-29T15:25:22.700Z,15.40
2018-11-29T15:27:50.424Z,12.73
2018-11-29T15:30:20.600Z,14.38
2018-11-29T15:32:47.920Z,14.50
2018-11-29T15:35:17.304Z,13.87
2018-11-29T15:37:46.994Z,13.63
2018-11-29T15:40:16.817Z,13.20
2018-11-29T15:42:44.818Z,13.37
2018-11-29T15:45:23.495Z,13.43
2018-11-29T15:47:51.585Z,13.10
2018-11-29T15:50:19.519Z,12.23
2018-11-29T15:52:47.531Z,13.00
2018-11-29T15:55:16.614Z,11.03
2018-11-29T15:57:46.176Z,11.70
2018-11-29T16:00:17.247Z,10.90
2018-11-29T16:02:47.155Z,11.00
2018-11-29T16:05:14.784Z,11.70
2018-11-29T16:07:42.647Z,11.17
2018-11-29T16:10:15.502Z,10.67
2018-11-29T16:12:44.111Z,10.60
2018-11-29T16:15:14.122Z,10.43
2018-11-29T16:17:42.996Z,10.33
2018-11-29T16:20:18.825Z,9.90
2018-11-29T16:22:46.725Z,10.70
2018-11-29T16:25:15.271Z,9.33
2018-11-29T16:27:43.867Z,9.23
2018-11-29T16:30:23.963Z,8.90
2018-11-29T16:32:54.002Z,10.77
2018-11-29T16:35:22.488Z,10.17
2018-11-29T16:37:50.299Z,10.27
2018-11-29T16:40:19.510Z,9.33
2018-11-29T16:42:47.262Z,9.67
2018-11-29T16:45:15.972Z,9.67
2018-11-29T16:47:43.700Z,9.90
2018-11-29T16:50:15.056Z,9.50
2018-11-29T16:52:43.850Z,10.90
2018-11-29T16:55:12.245Z,8.57
2018-11-29T16:57:43.693Z,9.07
2018-11-29T17:00:18.352Z,10.10
2018-11-29T17:02:47.763Z,10.40
2018-11-29T17:05:17.525Z,10.43
2018-11-29T17:07:45.367Z,9.70
2018-11-29T17:10:21.901Z,9.87
2018-11-29T17:12:52.691Z,11.33
2018-11-29T17:15:20.610Z,9.50
2018-11-29T17:17:48.560Z,9.20
2018-11-29T17:20:19.424Z,10.57
2018-11-29T17:22:48.899Z,9.60
2018-11-29T17:25:16.858Z,9.80
2018-11-29T17:27:49.150Z,10.93
2018-11-29T17:30:22.200Z,10.90
2018-11-29T17:32:53.257Z,11.00
2018-11-29T17:35:21.797Z,10.80
2018-11-29T17:37:50.625Z,10.60
2018-11-29T17:40:23.375Z,11.03
2018-11-29T17:42:53.588Z,11.93
2018-11-29T17:45:24.738Z,11.67
2018-11-29T17:47:58.530Z,12.47
2018-11-29T17:50:43.725Z,12.37
2018-11-29T17:53:16.304Z,11.10
2018-11-29T17:55:44.917Z,12.57
2018-11-29T17:58:15.631Z,12.60
2018-11-29T18:00:47.939Z,11.70
2018-11-29T18:03:19.662Z,12.47
2018-11-29T18:05:48.251Z,11.60
2018-11-29T18:08:16.748Z,13.30
2018-11-29T18:10:47.035Z,13.10
2018-11-29T18:13:19.896Z,12.93
2018-11-29T18:15:49.484Z,15.10
2018-11-29T18:18:19.000Z,12.77
2018-11-29T18:20:48.530Z,14.00
2018-11-29T18:23:17.146Z,13.57
2018-11-29T18:25:44.938Z,12.83
2018-11-29T18:28:13.765Z,13.67
2018-11-29T18:30:42.842Z,14.83
2018-11-29T18:33:10.653Z,14.53
2018-11-29T18:35:38.662Z,16.40
2018-11-29T18:38:08.946Z,13.57
2018-11-29T18:40:36.752Z,13.10
2018-11-29T18:43:07.790Z,14.30
2018-11-29T18:45:36.202Z,13.53
2018-11-29T18:48:07.179Z,15.20
2018-11-29T18:50:34.988Z,15.20
2018-11-29T18:53:02.969Z,16.00
2018-11-29T18:55:30.680Z,14.70
2018-11-29T18:57:59.046Z,16.37
2018-11-29T19:00:33.364Z,14.50
2018-11-29T19:03:01.184Z,15.90
2018-11-29T19:05:28.894Z,15.80
2018-11-29T19:07:56.740Z,15.48
2018-11-29T19:10:24.543Z,12.60
2018-11-29T19:13:23.239Z,16.45
2018-11-29T19:15:51.321Z,15.43
2018-11-29T19:18:19.060Z,15.17
2018-11-29T19:20:47.408Z,14.70
2018-11-29T19:23:15.095Z,15.67
2018-11-29T19:25:42.827Z,15.37
2018-11-29T19:28:10.544Z,13.78
2018-11-29T19:30:39.149Z,15.35
2018-11-29T19:33:18.657Z,14.27
2018-11-29T19:35:54.213Z,14.90
2018-11-29T19:38:22.235Z,14.00
2018-11-29T19:40:50.001Z,13.93
2018-11-29T19:43:17.807Z,15.37
2018-11-29T19:45:45.615Z,14.97
2018-11-29T19:48:13.808Z,14.87
2018-11-29T19:50:41.785Z,13.70
2018-11-29T19:53:15.033Z,12.47
2018-11-29T19:55:42.832Z,14.00
2018-11-29T19:58:10.493Z,14.90
2018-11-29T20:00:38.734Z,13.48
2018-11-29T20:03:06.983Z,14.43
2018-11-29T20:05:34.715Z,13.90
2018-11-29T20:08:02.560Z,13.47
2018-11-29T20:10:30.296Z,11.20
2018-11-29T20:13:03.768Z,13.05
2018-11-29T20:15:31.522Z,12.20
2018-11-29T20:17:59.393Z,12.20
2018-11-29T20:20:27.267Z,12.27
2018-11-29T20:22:55.111Z,12.20
2018-11-29T20:25:24.598Z,11.17
2018-11-29T20:27:52.335Z,10.97
2018-11-29T20:30:21.631Z,11.47
2018-11-29T20:32:51.348Z,10.70
2018-11-29T20:35:19.369Z,11.30
2018-11-29T20:37:48.388Z,11.23
2018-11-29T20:40:24.911Z,10.43
2018-11-29T20:42:54.637Z,12.20
2018-11-29T20:45:24.817Z,10.67
2018-11-29T20:47:52.609Z,12.03
2018-11-29T20:50:22.391Z,11.67
2018-11-29T20:52:51.982Z,11.40
2018-11-29T20:55:26.870Z,11.30
2018-11-29T20:57:54.689Z,9.63
2018-11-29T21:00:22.530Z,11.70
2018-11-29T21:02:50.358Z,11.40
2018-11-29T21:05:19.658Z,11.00
2018-11-29T21:07:50.782Z,9.30
2018-11-29T21:10:22.826Z,12.20
2018-11-29T21:12:50.538Z,11.03
2018-11-29T21:15:18.426Z,10.10
2018-11-29T21:17:46.126Z,10.23
2018-11-29T21:20:15.725Z,9.80
2018-11-29T21:22:45.345Z,10.70
2018-11-29T21:25:15.502Z,10.97
2018-11-29T21:27:43.186Z,9.70
2018-11-29T21:30:15.003Z,9.90
2018-11-29T21:32:43.125Z,10.07
2018-11-29T21:35:13.478Z,10.60
2018-11-29T21:37:41.654Z,11.33
2018-11-29T21:40:19.741Z,10.97
2018-11-29T21:42:47.515Z,11.17
2018-11-29T21:45:15.392Z,10.77
2018-11-29T21:47:43.085Z,8.97
2018-11-29T21:50:10.741Z,11.53
2018-11-29T21:52:38.486Z,10.00
2018-11-29T21:55:07.195Z,10.37
2018-11-29T21:57:34.901Z,11.30
2018-11-29T22:00:07.449Z,9.60
2018-11-29T22:02:35.113Z,8.60
2018-11-29T22:05:02.942Z,10.20
2018-11-29T22:07:30.589Z,9.98
2018-11-29T22:09:58.264Z,9.73
2018-11-29T22:12:26.056Z,9.53
2018-11-29T22:14:53.703Z,9.57
2018-11-29T22:17:21.414Z,11.40
2018-11-29T22:19:49.132Z,9.77
2018-11-29T22:22:16.864Z,8.90
2018-11-29T22:24:44.555Z,10.63
2018-11-29T22:27:12.239Z,10.07
2018-11-29T22:29:39.881Z,9.70
2018-11-29T22:32:07.591Z,10.13
2018-11-29T22:34:35.840Z,9.50
2018-11-29T22:37:03.640Z,10.30
2018-11-29T22:39:31.331Z,9.67
2018-11-29T22:41:58.999Z,9.33
2018-11-29T22:44:26.672Z,9.58
2018-11-29T22:46:54.345Z,9.17
2018-11-29T22:49:22.014Z,9.83
2018-11-29T22:51:49.722Z,10.20
2018-11-29T22:54:17.387Z,9.28
2018-11-29T22:56:45.121Z,9.73
2018-11-29T22:59:12.775Z,8.53
2018-11-29T23:01:40.518Z,9.73
2018-11-29T23:04:08.188Z,10.17
2018-11-29T23:06:36.049Z,10.27
2018-11-29T23:09:06.804Z,9.97
2018-11-29T23:11:34.534Z,10.10
2018-11-29T23:14:02.236Z,10.43
2018-11-29T23:16:29.973Z,9.43
2018-11-29T23:18:57.634Z,11.20
2018-11-29T23:21:25.291Z,10.80
2018-11-29T23:23:52.989Z,11.03
2018-11-29T23:26:20.698Z,11.10
2018-11-29T23:28:48.406Z,11.28
2018-11-29T23:31:16.061Z,10.40
2018-11-29T23:33:43.749Z,10.83
2018-11-29T23:36:11.485Z,10.20
2018-11-29T23:38:39.150Z,11.83
2018-11-29T23:41:06.962Z,10.53
2018-11-29T23:43:34.609Z,10.08
2018-11-29T23:46:02.251Z,10.03
2018-11-29T23:48:29.918Z,11.45
2018-11-29T23:50:57.613Z,10.43
2018-11-29T23:53:25.283Z,9.30
2018-11-29T23:55:53.021Z,12.47
2018-11-29T23:58:20.726Z,11.50
